createdAt,value
2022-10-15T00:03:00.233Z,0.00
2022-10-15T00:08:00.118Z,0.00
2022-10-15T00:13:00.167Z,0.00
2022-10-15T00:17:59.998Z,0.00
2022-10-15T00:22:59.930Z,0.00
2022-10-15T00:27:59.897Z,0.00
2022-10-15T00:32:59.808Z,0.00
2022-10-15T00:37:59.738Z,0.00
2022-10-15T00:42:59.672Z,0.00
2022-10-15T00:47:59.596Z,0.00
2022-10-15T00:52:59.577Z,0.00
2022-10-15T00:57:59.514Z,0.00
2022-10-15T01:02:59.422Z,0.00
2022-10-15T01:07:59.343Z,0.00
2022-10-15T01:12:59.283Z,0.00
2022-10-15T01:17:59.214Z,0.00
2022-10-15T01:22:59.184Z,0.00
2022-10-15T01:27:59.073Z,0.00
2022-10-15T01:32:59.023Z,0.00
2022-10-15T01:37:59.005Z,0.00
2022-10-15T01:42:58.914Z,0.00
2022-10-15T01:47:58.830Z,0.00
2022-10-15T01:52:58.758Z,0.00
2022-10-15T01:57:58.717Z,0.00
2022-10-15T02:02:58.642Z,0.00
2022-10-15T02:07:58.649Z,0.00
2022-10-15T02:12:58.521Z,0.00
2022-10-15T02:17:58.430Z,0.00
2022-10-15T02:22:58.376Z,0.00
2022-10-15T02:27:58.300Z,0.00
2022-10-15T02:32:58.291Z,0.00
2022-10-15T02:37:58.164Z,0.00
2022-10-15T02:42:58.113Z,0.00
2022-10-15T02:47:58.069Z,0.00
2022-10-15T02:52:57.993Z,0.00
2022-10-15T02:57:57.923Z,0.00
2022-10-15T03:02:57.863Z,0.00
2022-10-15T03:07:57.844Z,0.00
2022-10-15T03:12:57.739Z,0.00
2022-10-15T03:17:57.644Z,0.00
2022-10-15T03:22:57.599Z,0.00
2022-10-15T03:27:57.529Z,0.00
2022-10-15T03:32:57.467Z,0.00
2022-10-15T03:37:57.397Z,0.00
2022-10-15T03:42:57.359Z,0.00
2022-10-15T03:47:57.260Z,0.00
2022-10-15T03:52:57.237Z,0.00
2022-10-15T03:57:57.142Z,0.00
2022-10-15T04:02:57.078Z,0.00
2022-10-15T04:07:57.031Z,0.00
2022-10-15T04:12:56.952Z,0.00
2022-10-15T04:17:56.897Z,0.00
2022-10-15T04:22:56.833Z,0.00
2022-10-15T04:27:56.782Z,0.00
2022-10-15T04:32:56.694Z,0.00
2022-10-15T04:37:56.639Z,0.00
2022-10-15T04:42:56.575Z,0.00
2022-10-15T04:47:56.476Z,0.00
2022-10-15T04:52:56.435Z,0.00
2022-10-15T04:57:56.365Z,0.00
2022-10-15T05:02:56.371Z,0.00
2022-10-15T05:07:56.248Z,2.00
2022-10-15T05:12:57.004Z,6.00
2022-10-15T05:17:56.109Z,18.00
2022-10-15T05:22:56.054Z,40.00
2022-10-15T05:27:55.982Z,74.00
2022-10-15T05:32:55.969Z,114.00
2022-10-15T05:37:55.862Z,162.00
2022-10-15T05:42:55.866Z,180.00
2022-10-15T05:47:55.725Z,249.00
2022-10-15T05:52:55.665Z,338.00
2022-10-15T05:57:55.583Z,413.00
2022-10-15T06:02:55.586Z,552.00
2022-10-15T06:07:55.463Z,608.00
2022-10-15T06:12:55.407Z,662.00
2022-10-15T06:17:55.322Z,807.00
2022-10-15T06:22:55.266Z,1065.00
2022-10-15T06:27:55.228Z,1600.00
2022-10-15T06:32:55.146Z,1597.00
2022-10-15T06:37:58.081Z,1437.00
2022-10-15T06:42:56.043Z,1517.00
2022-10-15T06:47:54.938Z,1568.00
2022-10-15T06:52:54.947Z,1429.00
2022-10-15T06:57:54.848Z,1815.00
2022-10-15T07:02:54.740Z,1925.00
2022-10-15T07:07:54.691Z,1783.00
2022-10-15T07:12:54.634Z,2357.00
2022-10-15T07:17:54.572Z,3068.00
2022-10-15T07:22:54.509Z,2624.00
2022-10-15T07:27:54.433Z,1977.00
2022-10-15T07:32:54.383Z,2166.00
2022-10-15T07:37:54.333Z,3586.00
2022-10-15T07:42:54.251Z,4636.00
2022-10-15T07:47:54.245Z,3920.00
2022-10-15T07:52:54.154Z,4695.00
2022-10-15T07:57:54.087Z,4689.00
2022-10-15T08:02:54.036Z,5174.00
2022-10-15T08:07:53.957Z,4189.00
2022-10-15T08:12:53.908Z,5210.00
2022-10-15T08:17:53.817Z,5708.00
2022-10-15T08:22:53.792Z,5252.00
2022-10-15T08:27:53.701Z,4990.00
2022-10-15T08:32:53.637Z,4783.00
2022-10-15T08:37:53.579Z,5084.00
2022-10-15T08:42:53.529Z,5324.00
2022-10-15T08:47:53.449Z,5426.00
2022-10-15T08:52:53.399Z,5895.00
2022-10-15T08:57:53.333Z,6418.00
2022-10-15T09:02:53.305Z,6328.00
2022-10-15T09:07:54.494Z,6457.00
2022-10-15T09:12:53.176Z,6716.00
2022-10-15T09:17:53.075Z,5826.00
2022-10-15T09:22:53.039Z,5978.00
2022-10-15T09:27:52.965Z,5863.00
2022-10-15T09:32:54.585Z,5644.00
2022-10-15T09:37:52.840Z,5794.00
2022-10-15T09:42:52.768Z,7389.00
2022-10-15T09:47:52.743Z,12227.00
2022-10-15T09:52:52.649Z,9879.00
2022-10-15T09:57:52.581Z,10638.00
2022-10-15T10:02:52.530Z,10008.00
2022-10-15T10:07:52.442Z,6528.00
2022-10-15T10:12:52.393Z,5710.00
2022-10-15T10:17:52.379Z,5588.00
2022-10-15T10:22:52.262Z,4985.00
2022-10-15T10:27:52.185Z,5376.00
2022-10-15T10:32:52.126Z,7898.00
2022-10-15T10:37:52.095Z,7226.00
2022-10-15T10:42:52.001Z,7798.00
2022-10-15T10:47:51.927Z,7617.00
2022-10-15T10:52:51.877Z,7444.00
2022-10-15T10:57:51.793Z,9167.00
2022-10-15T11:02:51.739Z,8607.00
2022-10-15T11:07:51.689Z,9094.00
2022-10-15T11:12:51.630Z,7065.00
2022-10-15T11:17:51.563Z,7646.00
2022-10-15T11:22:51.501Z,8190.00
2022-10-15T11:27:51.410Z,11572.00
2022-10-15T11:33:08.456Z,9886.00
2022-10-15T11:37:52.285Z,11760.00
2022-10-15T11:42:51.245Z,12589.00
2022-10-15T11:47:51.206Z,15812.00
2022-10-15T11:52:51.118Z,16577.00
2022-10-15T11:57:51.051Z,19723.00
2022-10-15T12:02:50.979Z,21065.00
2022-10-15T12:07:50.908Z,14351.00
2022-10-15T12:12:50.850Z,8494.00
2022-10-15T12:17:50.804Z,6793.00
2022-10-15T12:22:50.717Z,8194.00
2022-10-15T12:27:50.652Z,14223.00
2022-10-15T12:32:50.602Z,18299.00
2022-10-15T12:37:50.522Z,16548.00
2022-10-15T12:42:50.462Z,14926.00
2022-10-15T12:47:50.395Z,11652.00
2022-10-15T12:52:50.350Z,11579.00
2022-10-15T12:57:50.276Z,8529.00
2022-10-15T13:02:50.197Z,5617.00
2022-10-15T13:07:50.157Z,5137.00
2022-10-15T13:12:50.089Z,2278.00
2022-10-15T13:17:50.070Z,3250.00
2022-10-15T13:22:55.233Z,3981.00
2022-10-15T13:27:50.880Z,3836.00
2022-10-15T13:32:49.835Z,5171.00
2022-10-15T13:37:49.752Z,10059.00
2022-10-15T13:42:49.683Z,10027.00
2022-10-15T13:47:49.634Z,10733.00
2022-10-15T13:52:49.566Z,9711.00
2022-10-15T13:57:49.499Z,8522.00
2022-10-15T14:02:49.416Z,6396.00
2022-10-15T14:07:49.377Z,7291.00
2022-10-15T14:12:49.333Z,6958.00
2022-10-15T14:17:49.259Z,4103.00
2022-10-15T14:22:49.188Z,4586.00
2022-10-15T14:27:49.109Z,4100.00
2022-10-15T14:32:49.063Z,4701.00
2022-10-15T14:37:49.012Z,5588.00
2022-10-15T14:42:48.935Z,5698.00
2022-10-15T14:47:48.862Z,5522.00
2022-10-15T14:52:48.796Z,6047.00
2022-10-15T14:57:48.735Z,4325.00
2022-10-15T15:02:48.752Z,3572.00
2022-10-15T15:07:48.606Z,4302.00
2022-10-15T15:12:48.530Z,3009.00
2022-10-15T15:17:48.492Z,4231.00
2022-10-15T15:22:48.417Z,5275.00
2022-10-15T15:27:48.376Z,3691.00
2022-10-15T15:32:48.280Z,2764.00
2022-10-15T15:37:48.260Z,2442.00
2022-10-15T15:42:48.165Z,2219.00
2022-10-15T15:47:48.110Z,1900.00
2022-10-15T15:52:48.093Z,1303.00
2022-10-15T15:57:47.982Z,1026.00
2022-10-15T16:02:47.903Z,744.00
2022-10-15T16:07:47.845Z,488.00
2022-10-15T16:12:47.794Z,366.00
2022-10-15T16:17:47.716Z,311.00
2022-10-15T16:22:47.647Z,268.00
2022-10-15T16:27:47.608Z,156.00
2022-10-15T16:32:47.527Z,84.00
2022-10-15T16:37:47.484Z,38.00
2022-10-15T16:42:47.423Z,14.00
2022-10-15T16:47:47.358Z,4.00
2022-10-15T16:52:47.281Z,1.00
2022-10-15T16:57:47.238Z,0.00
2022-10-15T17:02:47.142Z,0.00
2022-10-15T17:07:47.081Z,0.00
2022-10-15T17:12:47.035Z,0.00
2022-10-15T17:17:46.965Z,0.00
2022-10-15T17:22:46.915Z,0.00
2022-10-15T17:27:46.827Z,0.00
2022-10-15T17:32:46.786Z,0.00
2022-10-15T17:37:46.739Z,0.00
2022-10-15T17:42:46.628Z,0.00
2022-10-15T17:47:46.592Z,0.00
2022-10-15T17:52:46.509Z,0.00
2022-10-15T17:57:46.460Z,0.00
2022-10-15T18:02:46.441Z,0.00
2022-10-15T18:07:46.331Z,0.00
2022-10-15T18:12:46.244Z,0.00
2022-10-15T18:17:46.207Z,0.00
2022-10-15T18:22:46.125Z,0.00
2022-10-15T18:27:46.064Z,0.00
2022-10-15T18:32:45.987Z,0.00
2022-10-15T18:37:45.932Z,0.00
2022-10-15T18:42:47.743Z,0.00
2022-10-15T18:47:45.796Z,0.00
2022-10-15T18:52:46.076Z,0.00
2022-10-15T18:57:45.696Z,0.00
2022-10-15T19:02:45.597Z,0.00
2022-10-15T19:07:45.544Z,0.00
2022-10-15T19:12:45.501Z,0.00
2022-10-15T19:17:45.399Z,0.00
2022-10-15T19:22:45.348Z,0.00
2022-10-15T19:27:45.270Z,0.00
2022-10-15T19:32:45.219Z,0.00
2022-10-15T19:37:45.136Z,0.00
2022-10-15T19:42:45.078Z,0.00
2022-10-15T19:47:45.034Z,0.00
2022-10-15T19:52:44.967Z,0.00
2022-10-15T19:57:44.885Z,0.00
2022-10-15T20:02:44.820Z,0.00
2022-10-15T20:07:44.748Z,0.00
2022-10-15T20:17:44.638Z,0.00
2022-10-15T20:22:44.565Z,0.00
2022-10-15T20:27:44.498Z,0.00
2022-10-15T20:32:44.432Z,0.00
2022-10-15T20:37:44.379Z,0.00
2022-10-15T20:42:44.310Z,0.00
2022-10-15T20:47:44.232Z,0.00
2022-10-15T20:52:44.162Z,0.00
2022-10-15T20:57:44.104Z,0.00
2022-10-15T21:02:44.043Z,0.00
2022-10-15T21:07:43.974Z,0.00
2022-10-15T21:12:43.904Z,0.00
2022-10-15T21:17:43.837Z,0.00
2022-10-15T21:22:43.773Z,0.00
2022-10-15T21:27:43.706Z,0.00
2022-10-15T21:32:43.647Z,0.00
2022-10-15T21:37:43.586Z,0.00
2022-10-15T21:42:43.507Z,0.00
2022-10-15T21:47:43.446Z,0.00
2022-10-15T21:52:43.379Z,0.00
2022-10-15T21:57:43.327Z,0.00
2022-10-15T22:02:43.291Z,0.00
2022-10-15T22:07:43.238Z,0.00
2022-10-15T22:12:43.149Z,0.00
2022-10-15T22:17:43.053Z,0.00
2022-10-15T22:22:42.994Z,0.00
2022-10-15T22:27:42.929Z,0.00
2022-10-15T22:32:42.894Z,0.00
2022-10-15T22:37:42.801Z,0.00
2022-10-15T22:42:42.736Z,0.00
2022-10-15T22:47:42.665Z,0.00
2022-10-15T22:52:42.608Z,0.00
2022-10-15T22:57:42.548Z,0.00
2022-10-15T23:02:42.480Z,0.00
2022-10-15T23:07:42.409Z,0.00
2022-10-15T23:12:42.380Z,0.00
2022-10-15T23:17:42.290Z,0.00
2022-10-15T23:22:42.250Z,0.00
2022-10-15T23:27:42.156Z,0.00
2022-10-15T23:32:42.133Z,0.00
2022-10-15T23:37:42.048Z,0.00
2022-10-15T23:42:41.964Z,0.00
2022-10-15T23:47:41.902Z,0.00
2022-10-15T23:52:41.844Z,0.00
2022-10-15T23:57:41.766Z,0.00
